sensor_id;sensor_type;location;lat;lon;timestamp;P1;durP1;ratioP1;P2;durP2;ratioP2
20478;SDS011;10398;52.490;13.434;2022-08-19T00:00:23;10.25;;;6.35;;
20478;SDS011;10398;52.490;13.434;2022-08-19T00:02:49;9.25;;;5.95;;
20478;SDS011;10398;52.490;13.434;2022-08-19T00:05:15;12.02;;;6.40;;
20478;SDS011;10398;52.490;13.434;2022-08-19T00:07:41;9.02;;;6.07;;
20478;SDS011;10398;52.490;13.434;2022-08-19T00:10:08;13.13;;;6.32;;
20478;SDS011;10398;52.490;13.434;2022-08-19T00:12:36;8.40;;;5.95;;
20478;SDS011;10398;52.490;13.434;2022-08-19T00:15:04;9.75;;;5.93;;
20478;SDS011;10398;52.490;13.434;2022-08-19T00:17:31;10.10;;;6.10;;
20478;SDS011;10398;52.490;13.434;2022-08-19T00:19:56;8.13;;;6.10;;
20478;SDS011;10398;52.490;13.434;2022-08-19T00:22:22;8.55;;;6.13;;
20478;SDS011;10398;52.490;13.434;2022-08-19T00:24:48;9.82;;;6.93;;
20478;SDS011;10398;52.490;13.434;2022-08-19T00:27:13;7.88;;;6.38;;
20478;SDS011;10398;52.490;13.434;2022-08-19T00:29:39;11.48;;;6.65;;
20478;SDS011;10398;52.490;13.434;2022-08-19T00:32:05;11.73;;;6.38;;
20478;SDS011;10398;52.490;13.434;2022-08-19T00:34:31;8.43;;;5.95;;
20478;SDS011;10398;52.490;13.434;2022-08-19T00:36:57;9.68;;;6.43;;
20478;SDS011;10398;52.490;13.434;2022-08-19T00:39:24;10.27;;;6.68;;
20478;SDS011;10398;52.490;13.434;2022-08-19T00:41:50;12.43;;;6.88;;
20478;SDS011;10398;52.490;13.434;2022-08-19T00:44:20;10.45;;;7.22;;
20478;SDS011;10398;52.490;13.434;2022-08-19T00:46:49;10.07;;;6.28;;
20478;SDS011;10398;52.490;13.434;2022-08-19T00:49:17;11.63;;;7.15;;
20478;SDS011;10398;52.490;13.434;2022-08-19T00:51:56;14.48;;;7.60;;
20478;SDS011;10398;52.490;13.434;2022-08-19T00:54:26;13.55;;;7.80;;
20478;SDS011;10398;52.490;13.434;2022-08-19T00:56:53;13.27;;;7.63;;
20478;SDS011;10398;52.490;13.434;2022-08-19T00:59:19;8.85;;;6.70;;
20478;SDS011;10398;52.490;13.434;2022-08-19T01:01:45;11.70;;;6.90;;
20478;SDS011;10398;52.490;13.434;2022-08-19T01:04:12;13.18;;;7.35;;
20478;SDS011;10398;52.490;13.434;2022-08-19T01:06:38;11.68;;;7.35;;
20478;SDS011;10398;52.490;13.434;2022-08-19T01:09:06;10.35;;;6.95;;
20478;SDS011;10398;52.490;13.434;2022-08-19T01:11:33;12.80;;;7.75;;
20478;SDS011;10398;52.490;13.434;2022-08-19T01:14:05;13.80;;;7.65;;
20478;SDS011;10398;52.490;13.434;2022-08-19T01:16:32;11.13;;;8.13;;
20478;SDS011;10398;52.490;13.434;2022-08-19T01:18:59;11.98;;;7.82;;
20478;SDS011;10398;52.490;13.434;2022-08-19T01:21:31;11.07;;;7.82;;
20478;SDS011;10398;52.490;13.434;2022-08-19T01:23:57;12.15;;;7.68;;
20478;SDS011;10398;52.490;13.434;2022-08-19T01:26:24;13.30;;;8.00;;
20478;SDS011;10398;52.490;13.434;2022-08-19T01:28:51;12.57;;;8.20;;
20478;SDS011;10398;52.490;13.434;2022-08-19T01:31:20;11.32;;;7.97;;
20478;SDS011;10398;52.490;13.434;2022-08-19T01:33:49;12.15;;;7.40;;
20478;SDS011;10398;52.490;13.434;2022-08-19T01:36:22;12.02;;;7.97;;
20478;SDS011;10398;52.490;13.434;2022-08-19T01:38:53;10.43;;;7.45;;
20478;SDS011;10398;52.490;13.434;2022-08-19T01:41:19;13.90;;;8.07;;
20478;SDS011;10398;52.490;13.434;2022-08-19T01:43:45;17.15;;;7.85;;
20478;SDS011;10398;52.490;13.434;2022-08-19T01:46:11;14.07;;;7.22;;
20478;SDS011;10398;52.490;13.434;2022-08-19T01:48:38;11.15;;;6.97;;
20478;SDS011;10398;52.490;13.434;2022-08-19T01:51:06;11.75;;;7.50;;
20478;SDS011;10398;52.490;13.434;2022-08-19T01:53:33;15.50;;;7.18;;
20478;SDS011;10398;52.490;13.434;2022-08-19T01:55:59;14.43;;;7.05;;
20478;SDS011;10398;52.490;13.434;2022-08-19T01:58:36;11.55;;;7.63;;
20478;SDS011;10398;52.490;13.434;2022-08-19T02:01:06;12.18;;;7.32;;
20478;SDS011;10398;52.490;13.434;2022-08-19T02:03:32;15.98;;;7.07;;
20478;SDS011;10398;52.490;13.434;2022-08-19T02:06:00;9.65;;;6.97;;
20478;SDS011;10398;52.490;13.434;2022-08-19T02:08:27;15.77;;;7.10;;
20478;SDS011;10398;52.490;13.434;2022-08-19T02:10:54;14.82;;;7.97;;
20478;SDS011;10398;52.490;13.434;2022-08-19T02:13:20;11.88;;;7.10;;
20478;SDS011;10398;52.490;13.434;2022-08-19T02:15:46;9.57;;;6.63;;
20478;SDS011;10398;52.490;13.434;2022-08-19T02:18:11;12.82;;;6.70;;
20478;SDS011;10398;52.490;13.434;2022-08-19T02:20:37;12.23;;;6.97;;
20478;SDS011;10398;52.490;13.434;2022-08-19T02:23:05;14.70;;;7.60;;
20478;SDS011;10398;52.490;13.434;2022-08-19T02:25:31;10.55;;;6.63;;
20478;SDS011;10398;52.490;13.434;2022-08-19T02:27:57;10.85;;;6.35;;
20478;SDS011;10398;52.490;13.434;2022-08-19T02:30:22;11.18;;;7.38;;
20478;SDS011;10398;52.490;13.434;2022-08-19T02:32:49;11.20;;;6.38;;
20478;SDS011;10398;52.490;13.434;2022-08-19T02:35:15;9.27;;;6.28;;
20478;SDS011;10398;52.490;13.434;2022-08-19T02:37:42;10.52;;;6.63;;
20478;SDS011;10398;52.490;13.434;2022-08-19T02:40:27;10.48;;;7.45;;
20478;SDS011;10398;52.490;13.434;2022-08-19T02:42:59;13.63;;;7.75;;
20478;SDS011;10398;52.490;13.434;2022-08-19T02:45:26;12.98;;;7.78;;
20478;SDS011;10398;52.490;13.434;2022-08-19T02:47:52;11.73;;;7.20;;
20478;SDS011;10398;52.490;13.434;2022-08-19T02:50:18;12.20;;;7.82;;
20478;SDS011;10398;52.490;13.434;2022-08-19T02:52:43;16.38;;;8.48;;
20478;SDS011;10398;52.490;13.434;2022-08-19T02:55:10;14.73;;;8.55;;
20478;SDS011;10398;52.490;13.434;2022-08-19T02:57:36;11.65;;;7.65;;
20478;SDS011;10398;52.490;13.434;2022-08-19T03:00:03;16.52;;;6.90;;
20478;SDS011;10398;52.490;13.434;2022-08-19T03:02:30;11.07;;;7.53;;
20478;SDS011;10398;52.490;13.434;2022-08-19T03:04:56;11.32;;;7.60;;
20478;SDS011;10398;52.490;13.434;2022-08-19T03:07:22;11.90;;;6.90;;
20478;SDS011;10398;52.490;13.434;2022-08-19T03:09:47;11.35;;;7.45;;
20478;SDS011;10398;52.490;13.434;2022-08-19T03:12:13;10.73;;;6.70;;
20478;SDS011;10398;52.490;13.434;2022-08-19T03:14:38;10.95;;;6.95;;
20478;SDS011;10398;52.490;13.434;2022-08-19T03:17:04;10.00;;;6.60;;
20478;SDS011;10398;52.490;13.434;2022-08-19T03:19:30;9.90;;;7.15;;
20478;SDS011;10398;52.490;13.434;2022-08-19T03:21:56;9.63;;;6.35;;
20478;SDS011;10398;52.490;13.434;2022-08-19T03:24:23;9.45;;;6.75;;
20478;SDS011;10398;52.490;13.434;2022-08-19T03:26:51;11.88;;;6.68;;
20478;SDS011;10398;52.490;13.434;2022-08-19T03:29:20;10.57;;;6.80;;
20478;SDS011;10398;52.490;13.434;2022-08-19T03:31:45;7.95;;;5.88;;
20478;SDS011;10398;52.490;13.434;2022-08-19T03:34:12;9.00;;;6.47;;
20478;SDS011;10398;52.490;13.434;2022-08-19T03:36:43;10.45;;;6.03;;
20478;SDS011;10398;52.490;13.434;2022-08-19T03:39:10;8.77;;;6.45;;
20478;SDS011;10398;52.490;13.434;2022-08-19T03:41:37;8.45;;;5.45;;
20478;SDS011;10398;52.490;13.434;2022-08-19T03:44:05;11.48;;;6.55;;
20478;SDS011;10398;52.490;13.434;2022-08-19T03:46:32;11.40;;;6.63;;
20478;SDS011;10398;52.490;13.434;2022-08-19T03:48:59;10.02;;;6.50;;
20478;SDS011;10398;52.490;13.434;2022-08-19T03:51:30;10.65;;;6.72;;
20478;SDS011;10398;52.490;13.434;2022-08-19T03:53:59;13.65;;;7.07;;
20478;SDS011;10398;52.490;13.434;2022-08-19T03:56:26;11.35;;;6.55;;
20478;SDS011;10398;52.490;13.434;2022-08-19T03:58:53;8.65;;;6.30;;
20478;SDS011;10398;52.490;13.434;2022-08-19T04:01:20;8.70;;;6.32;;
20478;SDS011;10398;52.490;13.434;2022-08-19T04:03:48;9.20;;;7.07;;
20478;SDS011;10398;52.490;13.434;2022-08-19T04:06:15;10.18;;;7.05;;
20478;SDS011;10398;52.490;13.434;2022-08-19T04:08:44;12.23;;;7.13;;
20478;SDS011;10398;52.490;13.434;2022-08-19T04:11:12;10.25;;;6.82;;
20478;SDS011;10398;52.490;13.434;2022-08-19T04:13:40;10.77;;;7.13;;
20478;SDS011;10398;52.490;13.434;2022-08-19T04:16:06;10.85;;;6.70;;
20478;SDS011;10398;52.490;13.434;2022-08-19T04:18:35;10.50;;;6.53;;
20478;SDS011;10398;52.490;13.434;2022-08-19T04:21:01;12.18;;;7.40;;
20478;SDS011;10398;52.490;13.434;2022-08-19T04:23:27;11.90;;;7.43;;
20478;SDS011;10398;52.490;13.434;2022-08-19T04:26:04;12.23;;;7.20;;
20478;SDS011;10398;52.490;13.434;2022-08-19T04:28:31;11.93;;;6.93;;
20478;SDS011;10398;52.490;13.434;2022-08-19T04:30:56;11.77;;;6.85;;
20478;SDS011;10398;52.490;13.434;2022-08-19T04:33:23;13.75;;;7.00;;
20478;SDS011;10398;52.490;13.434;2022-08-19T04:35:50;11.55;;;6.65;;
20478;SDS011;10398;52.490;13.434;2022-08-19T04:38:20;12.10;;;6.43;;
20478;SDS011;10398;52.490;13.434;2022-08-19T04:40:48;9.75;;;6.82;;
20478;SDS011;10398;52.490;13.434;2022-08-19T04:43:33;9.75;;;6.85;;
20478;SDS011;10398;52.490;13.434;2022-08-19T04:46:07;9.80;;;6.57;;
20478;SDS011;10398;52.490;13.434;2022-08-19T04:48:35;13.25;;;6.93;;
20478;SDS011;10398;52.490;13.434;2022-08-19T04:51:01;9.50;;;6.75;;
20478;SDS011;10398;52.490;13.434;2022-08-19T04:53:32;12.05;;;7.85;;
20478;SDS011;10398;52.490;13.434;2022-08-19T04:56:04;12.57;;;7.30;;
20478;SDS011;10398;52.490;13.434;2022-08-19T04:58:35;8.85;;;6.53;;
20478;SDS011;10398;52.490;13.434;2022-08-19T05:01:01;9.27;;;7.15;;
20478;SDS011;10398;52.490;13.434;2022-08-19T05:03:28;11.50;;;6.97;;
20478;SDS011;10398;52.490;13.434;2022-08-19T05:05:58;10.63;;;7.32;;
20478;SDS011;10398;52.490;13.434;2022-08-19T05:08:31;11.40;;;7.65;;
20478;SDS011;10398;52.490;13.434;2022-08-19T05:10:56;13.38;;;7.22;;
20478;SDS011;10398;52.490;13.434;2022-08-19T05:13:22;10.43;;;7.15;;
20478;SDS011;10398;52.490;13.434;2022-08-19T05:15:57;12.38;;;8.00;;
20478;SDS011;10398;52.490;13.434;2022-08-19T05:18:24;12.95;;;7.55;;
20478;SDS011;10398;52.490;13.434;2022-08-19T05:21:11;11.60;;;7.82;;
20478;SDS011;10398;52.490;13.434;2022-08-19T05:23:57;14.45;;;7.25;;
20478;SDS011;10398;52.490;13.434;2022-08-19T05:26:23;11.77;;;7.95;;
20478;SDS011;10398;52.490;13.434;2022-08-19T05:28:53;12.02;;;7.25;;
20478;SDS011;10398;52.490;13.434;2022-08-19T05:31:19;19.98;;;7.97;;
20478;SDS011;10398;52.490;13.434;2022-08-19T05:33:45;42.13;;;11.75;;
20478;SDS011;10398;52.490;13.434;2022-08-19T05:36:11;20.45;;;8.82;;
20478;SDS011;10398;52.490;13.434;2022-08-19T05:38:37;10.02;;;6.93;;
20478;SDS011;10398;52.490;13.434;2022-08-19T05:41:09;12.55;;;7.88;;
20478;SDS011;10398;52.490;13.434;2022-08-19T05:43:36;12.57;;;6.97;;
20478;SDS011;10398;52.490;13.434;2022-08-19T05:46:02;11.52;;;6.93;;
20478;SDS011;10398;52.490;13.434;2022-08-19T05:48:31;11.20;;;7.07;;
20478;SDS011;10398;52.490;13.434;2022-08-19T05:50:58;13.07;;;7.82;;
20478;SDS011;10398;52.490;13.434;2022-08-19T05:53:28;11.10;;;7.30;;
20478;SDS011;10398;52.490;13.434;2022-08-19T05:55:53;13.45;;;7.53;;
20478;SDS011;10398;52.490;13.434;2022-08-19T05:58:19;10.63;;;7.28;;
20478;SDS011;10398;52.490;13.434;2022-08-19T06:00:45;12.02;;;7.80;;
20478;SDS011;10398;52.490;13.434;2022-08-19T06:03:10;18.33;;;8.40;;
20478;SDS011;10398;52.490;13.434;2022-08-19T06:05:36;20.98;;;8.95;;
20478;SDS011;10398;52.490;13.434;2022-08-19T06:08:01;20.40;;;9.85;;
20478;SDS011;10398;52.490;13.434;2022-08-19T06:10:28;25.92;;;9.63;;
20478;SDS011;10398;52.490;13.434;2022-08-19T06:12:54;16.00;;;8.57;;
20478;SDS011;10398;52.490;13.434;2022-08-19T06:15:21;19.48;;;9.05;;
20478;SDS011;10398;52.490;13.434;2022-08-19T06:17:50;14.52;;;8.23;;
20478;SDS011;10398;52.490;13.434;2022-08-19T06:20:16;14.00;;;8.32;;
20478;SDS011;10398;52.490;13.434;2022-08-19T06:22:44;16.55;;;8.43;;
20478;SDS011;10398;52.490;13.434;2022-08-19T06:25:11;24.10;;;9.85;;
20478;SDS011;10398;52.490;13.434;2022-08-19T06:27:38;23.48;;;9.50;;
20478;SDS011;10398;52.490;13.434;2022-08-19T06:30:04;18.88;;;8.85;;
20478;SDS011;10398;52.490;13.434;2022-08-19T06:32:31;13.02;;;8.38;;
20478;SDS011;10398;52.490;13.434;2022-08-19T06:34:56;12.85;;;8.38;;
20478;SDS011;10398;52.490;13.434;2022-08-19T06:37:22;15.45;;;8.48;;
20478;SDS011;10398;52.490;13.434;2022-08-19T06:39:48;17.13;;;8.55;;
20478;SDS011;10398;52.490;13.434;2022-08-19T06:42:14;15.45;;;8.77;;
20478;SDS011;10398;52.490;13.434;2022-08-19T06:44:43;16.00;;;9.38;;
20478;SDS011;10398;52.490;13.434;2022-08-19T06:47:14;19.35;;;8.65;;
20478;SDS011;10398;52.490;13.434;2022-08-19T06:49:44;15.70;;;9.55;;
20478;SDS011;10398;52.490;13.434;2022-08-19T06:52:10;19.45;;;9.90;;
20478;SDS011;10398;52.490;13.434;2022-08-19T06:54:40;22.70;;;9.98;;
20478;SDS011;10398;52.490;13.434;2022-08-19T06:57:07;16.83;;;9.43;;
20478;SDS011;10398;52.490;13.434;2022-08-19T06:59:38;17.48;;;9.10;;
20478;SDS011;10398;52.490;13.434;2022-08-19T07:02:05;12.98;;;9.50;;
20478;SDS011;10398;52.490;13.434;2022-08-19T07:04:31;13.23;;;8.68;;
20478;SDS011;10398;52.490;13.434;2022-08-19T07:07:03;16.15;;;9.10;;
20478;SDS011;10398;52.490;13.434;2022-08-19T07:09:35;15.02;;;8.85;;
20478;SDS011;10398;52.490;13.434;2022-08-19T07:12:03;16.13;;;8.88;;
20478;SDS011;10398;52.490;13.434;2022-08-19T07:14:31;12.88;;;9.32;;
20478;SDS011;10398;52.490;13.434;2022-08-19T07:16:57;16.77;;;9.07;;
20478;SDS011;10398;52.490;13.434;2022-08-19T07:19:24;17.05;;;9.48;;
20478;SDS011;10398;52.490;13.434;2022-08-19T07:21:54;20.27;;;11.00;;
20478;SDS011;10398;52.490;13.434;2022-08-19T07:24:22;16.20;;;8.75;;
20478;SDS011;10398;52.490;13.434;2022-08-19T07:26:49;14.88;;;8.65;;
20478;SDS011;10398;52.490;13.434;2022-08-19T07:29:16;14.98;;;9.73;;
20478;SDS011;10398;52.490;13.434;2022-08-19T07:31:43;14.75;;;9.27;;
20478;SDS011;10398;52.490;13.434;2022-08-19T07:34:10;20.33;;;10.45;;
20478;SDS011;10398;52.490;13.434;2022-08-19T07:36:38;15.95;;;10.52;;
20478;SDS011;10398;52.490;13.434;2022-08-19T07:39:10;28.80;;;16.17;;
20478;SDS011;10398;52.490;13.434;2022-08-19T07:41:41;16.98;;;11.15;;
20478;SDS011;10398;52.490;13.434;2022-08-19T07:44:08;15.90;;;9.95;;
20478;SDS011;10398;52.490;13.434;2022-08-19T07:46:34;17.95;;;10.73;;
20478;SDS011;10398;52.490;13.434;2022-08-19T07:49:02;20.65;;;11.45;;
20478;SDS011;10398;52.490;13.434;2022-08-19T07:51:28;22.70;;;12.68;;
20478;SDS011;10398;52.490;13.434;2022-08-19T07:53:54;22.23;;;11.07;;
20478;SDS011;10398;52.490;13.434;2022-08-19T07:56:21;13.73;;;9.75;;
20478;SDS011;10398;52.490;13.434;2022-08-19T07:58:48;18.45;;;10.02;;
20478;SDS011;10398;52.490;13.434;2022-08-19T08:01:16;21.85;;;10.95;;
20478;SDS011;10398;52.490;13.434;2022-08-19T08:03:44;17.40;;;10.25;;
20478;SDS011;10398;52.490;13.434;2022-08-19T08:06:29;16.90;;;10.40;;
20478;SDS011;10398;52.490;13.434;2022-08-19T08:09:14;12.98;;;8.93;;
20478;SDS011;10398;52.490;13.434;2022-08-19T08:11:48;14.52;;;9.73;;
20478;SDS011;10398;52.490;13.434;2022-08-19T08:14:33;18.20;;;10.00;;
20478;SDS011;10398;52.490;13.434;2022-08-19T08:17:06;12.65;;;9.65;;
20478;SDS011;10398;52.490;13.434;2022-08-19T08:19:32;14.63;;;10.68;;
20478;SDS011;10398;52.490;13.434;2022-08-19T08:21:59;15.95;;;10.95;;
20478;SDS011;10398;52.490;13.434;2022-08-19T08:24:27;16.58;;;10.32;;
20478;SDS011;10398;52.490;13.434;2022-08-19T08:26:55;15.70;;;9.65;;
20478;SDS011;10398;52.490;13.434;2022-08-19T08:29:23;15.85;;;10.18;;
20478;SDS011;10398;52.490;13.434;2022-08-19T08:31:50;16.88;;;10.13;;
20478;SDS011;10398;52.490;13.434;2022-08-19T08:34:17;19.77;;;10.95;;
20478;SDS011;10398;52.490;13.434;2022-08-19T08:36:43;19.55;;;11.60;;
20478;SDS011;10398;52.490;13.434;2022-08-19T08:39:18;20.10;;;12.00;;
20478;SDS011;10398;52.490;13.434;2022-08-19T08:44:40;19.58;;;11.95;;
20478;SDS011;10398;52.490;13.434;2022-08-19T08:47:17;19.48;;;12.80;;
20478;SDS011;10398;52.490;13.434;2022-08-19T08:49:50;18.60;;;11.57;;
20478;SDS011;10398;52.490;13.434;2022-08-19T08:52:33;20.38;;;12.10;;
20478;SDS011;10398;52.490;13.434;2022-08-19T08:55:12;25.45;;;13.68;;
20478;SDS011;10398;52.490;13.434;2022-08-19T09:00:30;25.70;;;11.98;;
20478;SDS011;10398;52.490;13.434;2022-08-19T09:03:03;19.30;;;11.60;;
20478;SDS011;10398;52.490;13.434;2022-08-19T09:11:10;18.27;;;11.25;;
20478;SDS011;10398;52.490;13.434;2022-08-19T09:13:49;17.83;;;11.65;;
20478;SDS011;10398;52.490;13.434;2022-08-19T09:16:31;17.00;;;10.80;;
20478;SDS011;10398;52.490;13.434;2022-08-19T09:19:00;20.05;;;13.30;;
20478;SDS011;10398;52.490;13.434;2022-08-19T09:21:28;19.55;;;13.23;;
20478;SDS011;10398;52.490;13.434;2022-08-19T09:23:54;16.42;;;11.77;;
20478;SDS011;10398;52.490;13.434;2022-08-19T09:26:21;21.52;;;12.00;;
20478;SDS011;10398;52.490;13.434;2022-08-19T09:28:48;17.40;;;11.70;;
20478;SDS011;10398;52.490;13.434;2022-08-19T09:31:19;19.08;;;11.90;;
20478;SDS011;10398;52.490;13.434;2022-08-19T09:33:50;14.90;;;10.50;;
20478;SDS011;10398;52.490;13.434;2022-08-19T09:36:18;17.73;;;11.90;;
20478;SDS011;10398;52.490;13.434;2022-08-19T09:38:44;22.80;;;12.52;;
20478;SDS011;10398;52.490;13.434;2022-08-19T09:41:11;15.45;;;10.60;;
20478;SDS011;10398;52.490;13.434;2022-08-19T09:43:39;19.75;;;13.32;;
20478;SDS011;10398;52.490;13.434;2022-08-19T09:46:06;17.15;;;11.60;;
20478;SDS011;10398;52.490;13.434;2022-08-19T09:48:34;19.75;;;11.43;;
20478;SDS011;10398;52.490;13.434;2022-08-19T09:51:10;21.38;;;12.32;;
20478;SDS011;10398;52.490;13.434;2022-08-19T09:53:40;21.48;;;12.15;;
20478;SDS011;10398;52.490;13.434;2022-08-19T09:56:07;20.98;;;13.60;;
20478;SDS011;10398;52.490;13.434;2022-08-19T09:58:33;17.05;;;11.52;;
20478;SDS011;10398;52.490;13.434;2022-08-19T10:00:59;19.95;;;12.98;;
20478;SDS011;10398;52.490;13.434;2022-08-19T10:03:26;17.08;;;11.18;;
20478;SDS011;10398;52.490;13.434;2022-08-19T10:05:53;14.10;;;9.70;;
20478;SDS011;10398;52.490;13.434;2022-08-19T10:08:31;16.23;;;10.15;;
20478;SDS011;10398;52.490;13.434;2022-08-19T10:11:00;16.83;;;11.52;;
20478;SDS011;10398;52.490;13.434;2022-08-19T10:13:27;15.48;;;9.80;;
20478;SDS011;10398;52.490;13.434;2022-08-19T10:15:55;16.85;;;11.25;;
20478;SDS011;10398;52.490;13.434;2022-08-19T10:18:27;17.17;;;11.50;;
20478;SDS011;10398;52.490;13.434;2022-08-19T10:21:01;16.40;;;11.20;;
20478;SDS011;10398;52.490;13.434;2022-08-19T10:23:39;18.73;;;11.05;;
20478;SDS011;10398;52.490;13.434;2022-08-19T10:26:08;17.52;;;11.00;;
20478;SDS011;10398;52.490;13.434;2022-08-19T10:28:34;15.63;;;10.23;;
20478;SDS011;10398;52.490;13.434;2022-08-19T10:31:07;14.07;;;10.57;;
20478;SDS011;10398;52.490;13.434;2022-08-19T10:33:35;13.65;;;10.27;;
20478;SDS011;10398;52.490;13.434;2022-08-19T10:36:07;14.15;;;9.90;;
20478;SDS011;10398;52.490;13.434;2022-08-19T10:38:35;15.48;;;9.73;;
20478;SDS011;10398;52.490;13.434;2022-08-19T10:41:14;13.82;;;10.23;;
20478;SDS011;10398;52.490;13.434;2022-08-19T10:43:42;13.43;;;9.95;;
20478;SDS011;10398;52.490;13.434;2022-08-19T10:46:10;15.43;;;10.57;;
20478;SDS011;10398;52.490;13.434;2022-08-19T10:48:38;15.48;;;10.32;;
20478;SDS011;10398;52.490;13.434;2022-08-19T10:51:03;16.83;;;10.18;;
20478;SDS011;10398;52.490;13.434;2022-08-19T10:53:48;21.70;;;10.75;;
20478;SDS011;10398;52.490;13.434;2022-08-19T10:56:14;19.98;;;10.15;;
20478;SDS011;10398;52.490;13.434;2022-08-19T10:58:58;15.55;;;9.27;;
20478;SDS011;10398;52.490;13.434;2022-08-19T11:01:25;15.35;;;9.95;;
20478;SDS011;10398;52.490;13.434;2022-08-19T11:03:51;18.63;;;12.27;;
20478;SDS011;10398;52.490;13.434;2022-08-19T11:06:17;17.77;;;10.90;;
20478;SDS011;10398;52.490;13.434;2022-08-19T11:08:44;15.10;;;9.70;;
20478;SDS011;10398;52.490;13.434;2022-08-19T11:11:10;15.25;;;9.93;;
20478;SDS011;10398;52.490;13.434;2022-08-19T11:13:37;15.65;;;10.02;;
20478;SDS011;10398;52.490;13.434;2022-08-19T11:16:10;15.32;;;9.50;;
20478;SDS011;10398;52.490;13.434;2022-08-19T11:18:47;14.95;;;9.30;;
20478;SDS011;10398;52.490;13.434;2022-08-19T11:21:16;13.80;;;10.23;;
20478;SDS011;10398;52.490;13.434;2022-08-19T11:23:47;14.07;;;9.55;;
20478;SDS011;10398;52.490;13.434;2022-08-19T11:26:15;13.63;;;9.48;;
20478;SDS011;10398;52.490;13.434;2022-08-19T11:28:41;14.48;;;8.93;;
20478;SDS011;10398;52.490;13.434;2022-08-19T11:31:11;15.65;;;8.73;;
20478;SDS011;10398;52.490;13.434;2022-08-19T11:33:39;12.82;;;8.85;;
20478;SDS011;10398;52.490;13.434;2022-08-19T11:36:05;18.08;;;9.75;;
20478;SDS011;10398;52.490;13.434;2022-08-19T11:38:32;13.68;;;9.25;;
20478;SDS011;10398;52.490;13.434;2022-08-19T11:40:59;15.32;;;9.20;;
20478;SDS011;10398;52.490;13.434;2022-08-19T11:43:29;11.93;;;8.52;;
20478;SDS011;10398;52.490;13.434;2022-08-19T11:45:55;11.75;;;8.30;;
20478;SDS011;10398;52.490;13.434;2022-08-19T11:48:23;11.88;;;8.93;;
20478;SDS011;10398;52.490;13.434;2022-08-19T11:50:51;13.00;;;8.30;;
20478;SDS011;10398;52.490;13.434;2022-08-19T11:53:18;14.15;;;8.45;;
20478;SDS011;10398;52.490;13.434;2022-08-19T11:55:45;11.63;;;8.65;;
20478;SDS011;10398;52.490;13.434;2022-08-19T11:58:15;13.65;;;8.85;;
20478;SDS011;10398;52.490;13.434;2022-08-19T12:00:43;13.45;;;8.48;;
20478;SDS011;10398;52.490;13.434;2022-08-19T12:03:10;11.15;;;7.40;;
20478;SDS011;10398;52.490;13.434;2022-08-19T12:05:37;10.02;;;8.20;;
20478;SDS011;10398;52.490;13.434;2022-08-19T12:08:05;12.02;;;7.35;;
20478;SDS011;10398;52.490;13.434;2022-08-19T12:10:31;13.13;;;7.95;;
20478;SDS011;10398;52.490;13.434;2022-08-19T12:12:57;9.30;;;7.72;;
20478;SDS011;10398;52.490;13.434;2022-08-19T12:15:24;11.40;;;7.78;;
20478;SDS011;10398;52.490;13.434;2022-08-19T12:17:53;9.63;;;7.78;;
20478;SDS011;10398;52.490;13.434;2022-08-19T12:20:21;11.18;;;7.63;;
20478;SDS011;10398;52.490;13.434;2022-08-19T12:22:48;15.18;;;7.90;;
20478;SDS011;10398;52.490;13.434;2022-08-19T12:25:15;12.40;;;7.88;;
20478;SDS011;10398;52.490;13.434;2022-08-19T12:27:40;12.30;;;7.40;;
20478;SDS011;10398;52.490;13.434;2022-08-19T12:30:08;10.45;;;7.05;;
20478;SDS011;10398;52.490;13.434;2022-08-19T12:32:35;9.45;;;7.25;;
20478;SDS011;10398;52.490;13.434;2022-08-19T12:35:01;12.88;;;6.97;;
20478;SDS011;10398;52.490;13.434;2022-08-19T12:37:28;11.40;;;7.15;;
20478;SDS011;10398;52.490;13.434;2022-08-19T12:39:54;11.55;;;7.13;;
20478;SDS011;10398;52.490;13.434;2022-08-19T12:42:20;10.02;;;7.55;;
20478;SDS011;10398;52.490;13.434;2022-08-19T12:44:47;10.73;;;6.82;;
20478;SDS011;10398;52.490;13.434;2022-08-19T12:47:13;8.45;;;6.70;;
20478;SDS011;10398;52.490;13.434;2022-08-19T12:49:39;9.95;;;6.90;;
20478;SDS011;10398;52.490;13.434;2022-08-19T12:52:06;12.25;;;7.45;;
20478;SDS011;10398;52.490;13.434;2022-08-19T12:54:33;10.63;;;6.80;;
20478;SDS011;10398;52.490;13.434;2022-08-19T12:57:00;10.50;;;6.55;;
20478;SDS011;10398;52.490;13.434;2022-08-19T12:59:32;9.52;;;6.70;;
20478;SDS011;10398;52.490;13.434;2022-08-19T13:01:58;16.52;;;7.30;;
20478;SDS011;10398;52.490;13.434;2022-08-19T13:04:24;10.27;;;6.50;;
20478;SDS011;10398;52.490;13.434;2022-08-19T13:06:49;9.77;;;6.40;;
20478;SDS011;10398;52.490;13.434;2022-08-19T13:09:15;9.43;;;6.13;;
20478;SDS011;10398;52.490;13.434;2022-08-19T13:11:41;10.30;;;6.72;;
20478;SDS011;10398;52.490;13.434;2022-08-19T13:14:08;9.98;;;7.05;;
20478;SDS011;10398;52.490;13.434;2022-08-19T13:16:36;12.98;;;7.57;;
20478;SDS011;10398;52.490;13.434;2022-08-19T13:19:02;9.90;;;7.10;;
20478;SDS011;10398;52.490;13.434;2022-08-19T13:21:30;10.02;;;7.20;;
20478;SDS011;10398;52.490;13.434;2022-08-19T13:23:55;12.10;;;7.40;;
20478;SDS011;10398;52.490;13.434;2022-08-19T13:26:22;10.23;;;7.32;;
20478;SDS011;10398;52.490;13.434;2022-08-19T13:28:47;10.85;;;7.30;;
20478;SDS011;10398;52.490;13.434;2022-08-19T13:31:33;13.90;;;7.75;;
20478;SDS011;10398;52.490;13.434;2022-08-19T13:34:25;7.38;;;6.03;;
20478;SDS011;10398;52.490;13.434;2022-08-19T13:36:55;10.55;;;7.57;;
20478;SDS011;10398;52.490;13.434;2022-08-19T13:39:21;12.57;;;7.15;;
20478;SDS011;10398;52.490;13.434;2022-08-19T13:41:48;12.63;;;8.32;;
20478;SDS011;10398;52.490;13.434;2022-08-19T13:44:15;12.32;;;7.82;;
20478;SDS011;10398;52.490;13.434;2022-08-19T13:46:48;11.23;;;8.05;;
20478;SDS011;10398;52.490;13.434;2022-08-19T13:49:17;16.20;;;8.13;;
20478;SDS011;10398;52.490;13.434;2022-08-19T13:51:42;10.80;;;7.82;;
20478;SDS011;10398;52.490;13.434;2022-08-19T13:54:09;9.98;;;7.25;;
20478;SDS011;10398;52.490;13.434;2022-08-19T13:56:39;12.90;;;7.65;;
20478;SDS011;10398;52.490;13.434;2022-08-19T13:59:08;9.90;;;7.70;;
20478;SDS011;10398;52.490;13.434;2022-08-19T14:01:34;15.48;;;8.43;;
20478;SDS011;10398;52.490;13.434;2022-08-19T14:04:00;12.40;;;7.80;;
20478;SDS011;10398;52.490;13.434;2022-08-19T14:06:27;13.63;;;7.63;;
20478;SDS011;10398;52.490;13.434;2022-08-19T14:08:52;11.73;;;7.85;;
20478;SDS011;10398;52.490;13.434;2022-08-19T14:11:18;12.98;;;8.30;;
20478;SDS011;10398;52.490;13.434;2022-08-19T14:13:44;13.30;;;7.85;;
20478;SDS011;10398;52.490;13.434;2022-08-19T14:16:10;18.20;;;8.20;;
20478;SDS011;10398;52.490;13.434;2022-08-19T14:18:38;16.45;;;7.82;;
20478;SDS011;10398;52.490;13.434;2022-08-19T14:21:04;14.18;;;7.57;;
20478;SDS011;10398;52.490;13.434;2022-08-19T14:23:31;12.75;;;8.20;;
20478;SDS011;10398;52.490;13.434;2022-08-19T14:26:07;14.25;;;9.02;;
20478;SDS011;10398;52.490;13.434;2022-08-19T14:28:36;11.75;;;8.30;;
20478;SDS011;10398;52.490;13.434;2022-08-19T14:31:02;15.20;;;8.25;;
20478;SDS011;10398;52.490;13.434;2022-08-19T14:33:28;12.82;;;8.30;;
20478;SDS011;10398;52.490;13.434;2022-08-19T14:35:53;12.32;;;8.48;;
20478;SDS011;10398;52.490;13.434;2022-08-19T14:38:19;11.02;;;8.30;;